createdAt,value
2022-08-19T00:00:08.057Z,43.94
2022-08-19T00:03:00.119Z,44.02
2022-08-19T00:05:32.310Z,43.97
2022-08-19T00:08:05.665Z,44.20
2022-08-19T00:10:38.614Z,44.26
2022-08-19T00:13:13.125Z,44.50
2022-08-19T00:15:46.093Z,44.54
2022-08-19T00:18:21.425Z,44.71
2022-08-19T00:20:52.161Z,44.68
2022-08-19T00:23:25.824Z,44.75
2022-08-19T00:26:02.007Z,44.75
2022-08-19T00:28:36.123Z,44.91
2022-08-19T00:31:12.460Z,45.00
2022-08-19T00:33:47.950Z,45.01
2022-08-19T00:36:19.899Z,45.01
2022-08-19T00:38:56.425Z,45.16
2022-08-19T00:41:27.644Z,45.08
2022-08-19T00:44:08.128Z,45.28
2022-08-19T00:46:41.757Z,45.40
2022-08-19T00:49:16.706Z,45.39
2022-08-19T00:51:48.145Z,45.47
2022-08-19T00:54:20.365Z,45.61
2022-08-19T00:57:04.116Z,45.77
2022-08-19T01:00:01.048Z,45.83
2022-08-19T01:02:35.736Z,45.80
2022-08-19T01:05:11.488Z,45.90
2022-08-19T01:07:42.866Z,45.97
2022-08-19T01:10:17.194Z,45.97
2022-08-19T01:12:48.215Z,46.10
2022-08-19T01:15:22.408Z,46.09
2022-08-19T01:17:57.071Z,46.19
2022-08-19T01:20:36.389Z,46.24
2022-08-19T01:23:08.359Z,46.26
2022-08-19T01:25:50.067Z,46.30
2022-08-19T01:28:39.749Z,46.30
2022-08-19T01:31:27.265Z,46.46
2022-08-19T01:34:02.117Z,46.56
2022-08-19T01:36:34.058Z,46.63
2022-08-19T01:39:10.529Z,46.75
2022-08-19T01:41:41.368Z,46.75
2022-08-19T01:44:18.728Z,46.77
2022-08-19T01:46:56.709Z,46.89
2022-08-19T01:49:27.792Z,46.95
2022-08-19T01:51:59.667Z,47.03
2022-08-19T01:54:40.400Z,47.09
2022-08-19T01:57:12.310Z,47.08
2022-08-19T01:59:45.307Z,47.21
2022-08-19T02:02:19.253Z,47.24
2022-08-19T02:04:52.494Z,47.27
2022-08-19T02:07:29.556Z,47.40
2022-08-19T02:10:00.514Z,47.51
2022-08-19T02:12:36.859Z,47.47
2022-08-19T02:15:09.027Z,47.55
2022-08-19T02:17:46.052Z,47.58
2022-08-19T02:20:17.213Z,47.66
2022-08-19T02:22:50.880Z,47.64
2022-08-19T02:25:25.628Z,47.50
2022-08-19T02:27:56.352Z,47.70
2022-08-19T02:30:31.333Z,47.79
2022-08-19T02:33:09.629Z,47.72
2022-08-19T02:35:40.629Z,47.86
2022-08-19T02:38:36.210Z,48.00
2022-08-19T02:41:11.112Z,47.97
2022-08-19T02:44:26.497Z,48.17
2022-08-19T02:46:44.521Z,47.99
2022-08-19T02:49:17.582Z,48.27
2022-08-19T02:51:48.926Z,48.08
2022-08-19T02:54:24.210Z,48.12
2022-08-19T02:56:56.190Z,48.43
2022-08-19T02:59:27.101Z,48.26
2022-08-19T03:02:01.073Z,48.29
2022-08-19T03:04:31.899Z,48.35
2022-08-19T03:07:10.924Z,48.29
2022-08-19T03:09:43.593Z,48.58
2022-08-19T03:12:14.509Z,48.54
2022-08-19T03:14:47.728Z,48.67
2022-08-19T03:17:24.392Z,48.65
2022-08-19T03:20:00.911Z,48.81
2022-08-19T03:22:34.180Z,48.79
2022-08-19T03:25:07.171Z,48.81
2022-08-19T03:27:40.845Z,48.86
2022-08-19T03:30:15.128Z,48.97
2022-08-19T03:32:57.144Z,48.83
2022-08-19T03:35:28.409Z,48.89
2022-08-19T03:37:59.300Z,48.98
2022-08-19T03:40:31.953Z,49.15
2022-08-19T03:43:03.332Z,49.17
2022-08-19T03:45:42.084Z,49.04
2022-08-19T03:48:13.117Z,49.24
2022-08-19T03:50:51.171Z,49.29
2022-08-19T03:53:22.902Z,49.45
2022-08-19T03:55:54.187Z,49.55
2022-08-19T03:58:28.925Z,49.70
2022-08-19T04:01:02.070Z,49.57
2022-08-19T04:03:37.140Z,49.45
2022-08-19T04:06:18.157Z,49.99
2022-08-19T04:08:51.555Z,49.95
2022-08-19T04:11:43.242Z,49.99
2022-08-19T04:14:20.610Z,50.01
2022-08-19T04:16:51.603Z,50.02
2022-08-19T04:19:22.915Z,50.11
2022-08-19T04:21:54.858Z,49.96
2022-08-19T04:24:38.283Z,50.06
2022-08-19T04:27:10.594Z,50.29
2022-08-19T04:29:42.481Z,50.29
2022-08-19T04:32:16.963Z,50.25
2022-08-19T04:35:01.559Z,50.43
2022-08-19T04:37:42.560Z,50.41
2022-08-19T04:40:31.294Z,50.27
2022-08-19T04:43:03.363Z,50.36
2022-08-19T04:45:43.790Z,50.33
2022-08-19T04:48:19.793Z,50.47
2022-08-19T04:51:08.666Z,50.63
2022-08-19T04:53:41.653Z,50.49
2022-08-19T04:56:22.700Z,50.50
2022-08-19T04:58:53.599Z,50.42
2022-08-19T05:01:37.286Z,50.67
2022-08-19T05:04:08.745Z,50.29
2022-08-19T05:06:43.450Z,50.43
2022-08-19T05:09:16.850Z,50.46
2022-08-19T05:11:52.526Z,50.41
2022-08-19T05:14:31.584Z,50.24
2022-08-19T05:17:26.215Z,50.49
2022-08-19T05:20:16.587Z,50.34
2022-08-19T05:22:49.296Z,50.39
2022-08-19T05:25:32.882Z,50.44
2022-08-19T05:28:08.635Z,50.32
2022-08-19T05:30:47.751Z,50.30
2022-08-19T05:33:23.947Z,50.47
2022-08-19T05:35:57.756Z,50.45
2022-08-19T05:38:38.432Z,50.53
2022-08-19T05:41:11.827Z,50.72
2022-08-19T05:43:48.474Z,50.48
2022-08-19T05:46:27.872Z,50.76
2022-08-19T05:49:15.021Z,50.68
2022-08-19T05:51:49.223Z,50.65
2022-08-19T05:54:24.275Z,50.55
2022-08-19T05:57:04.671Z,50.51
2022-08-19T05:59:35.568Z,50.44
2022-08-19T06:02:14.646Z,50.35
2022-08-19T06:04:57.739Z,50.25
2022-08-19T06:07:31.664Z,50.13
2022-08-19T06:10:05.950Z,50.17
2022-08-19T06:12:40.675Z,49.97
2022-08-19T06:15:15.972Z,50.05
2022-08-19T06:17:49.855Z,49.86
2022-08-19T06:20:52.293Z,49.57
2022-08-19T06:23:20.519Z,49.39
2022-08-19T06:25:55.296Z,49.41
2022-08-19T06:28:28.973Z,49.21
2022-08-19T06:30:59.849Z,48.96
2022-08-19T06:33:33.660Z,49.05
2022-08-19T06:36:07.501Z,49.06
2022-08-19T06:38:38.441Z,48.72
2022-08-19T06:41:16.684Z,48.44
2022-08-19T06:43:50.526Z,47.94
2022-08-19T06:46:29.970Z,48.28
2022-08-19T06:49:15.193Z,48.26
2022-08-19T06:51:54.722Z,47.76
2022-08-19T06:54:30.794Z,47.57
2022-08-19T06:57:03.504Z,47.56
2022-08-19T06:59:35.449Z,47.32
2022-08-19T07:04:55.261Z,46.71
2022-08-19T07:07:33.852Z,46.45
2022-08-19T07:10:07.704Z,46.10
2022-08-19T07:12:39.265Z,45.95
2022-08-19T07:15:22.477Z,45.88
2022-08-19T07:17:57.752Z,45.71
2022-08-19T07:20:29.714Z,45.28
2022-08-19T07:23:07.164Z,45.17
2022-08-19T07:25:52.499Z,44.86
2022-08-19T07:28:25.175Z,44.89
2022-08-19T07:31:02.960Z,44.60
2022-08-19T07:33:37.674Z,44.23
2022-08-19T07:36:14.464Z,44.28
2022-08-19T07:38:48.035Z,43.84
2022-08-19T07:41:29.860Z,43.86
2022-08-19T07:44:07.292Z,43.46
2022-08-19T07:46:48.270Z,43.07
2022-08-19T07:49:27.032Z,43.00
2022-08-19T07:52:01.259Z,42.76
2022-08-19T07:54:36.717Z,42.63
2022-08-19T07:57:13.813Z,42.42
2022-08-19T07:59:49.933Z,42.18
2022-08-19T08:02:29.741Z,42.24
2022-08-19T08:05:18.645Z,41.92
2022-08-19T08:08:09.039Z,41.93
2022-08-19T08:10:43.754Z,41.71
2022-08-19T08:13:31.225Z,41.71
2022-08-19T08:16:05.475Z,41.52
2022-08-19T08:19:02.879Z,41.43
2022-08-19T08:21:45.214Z,41.14
2022-08-19T08:24:19.680Z,41.18
2022-08-19T08:26:52.135Z,40.96
2022-08-19T08:29:35.091Z,40.92
2022-08-19T08:32:14.231Z,40.68
2022-08-19T08:34:52.419Z,40.43
2022-08-19T08:37:25.129Z,40.75
2022-08-19T08:39:58.944Z,40.50
2022-08-19T08:42:30.472Z,40.56
2022-08-19T08:45:07.004Z,40.22
2022-08-19T08:47:41.966Z,40.24
2022-08-19T08:50:15.786Z,39.77
2022-08-19T08:52:48.264Z,39.72
2022-08-19T08:55:24.535Z,39.54
2022-08-19T08:58:03.399Z,39.38
2022-08-19T09:00:44.004Z,39.02
2022-08-19T09:03:19.219Z,39.17
2022-08-19T09:05:52.488Z,38.55
2022-08-19T09:08:28.497Z,38.36
2022-08-19T09:10:59.574Z,38.06
2022-08-19T09:13:37.487Z,37.58
2022-08-19T09:16:09.936Z,37.20
2022-08-19T09:18:48.235Z,37.22
2022-08-19T09:21:25.738Z,37.04
2022-08-19T09:24:04.175Z,36.59
2022-08-19T09:26:48.267Z,36.17
2022-08-19T09:29:26.981Z,35.93
2022-08-19T09:31:59.041Z,35.45
2022-08-19T09:34:37.848Z,35.21
2022-08-19T09:37:15.137Z,35.01
2022-08-19T09:39:46.149Z,34.60
2022-08-19T09:42:30.357Z,34.25
2022-08-19T09:45:10.484Z,33.75
2022-08-19T09:47:41.357Z,33.45
2022-08-19T09:50:16.426Z,33.19
2022-08-19T09:52:55.076Z,32.77
2022-08-19T09:55:32.062Z,32.61
2022-08-19T09:58:04.364Z,32.15
2022-08-19T10:00:35.124Z,32.17
2022-08-19T10:03:05.900Z,31.84
2022-08-19T10:05:54.659Z,31.38
2022-08-19T10:08:27.694Z,30.80
2022-08-19T10:10:58.862Z,30.18
2022-08-19T10:13:31.077Z,29.94
2022-08-19T10:16:06.298Z,29.86
2022-08-19T10:18:38.357Z,29.81
2022-08-19T10:21:16.129Z,29.23
2022-08-19T10:23:47.969Z,29.07
2022-08-19T10:26:20.889Z,29.06
2022-08-19T10:28:51.737Z,28.71
2022-08-19T10:32:00.636Z,28.46
2022-08-19T10:34:27.435Z,28.05
2022-08-19T10:37:01.130Z,27.59
2022-08-19T10:39:42.467Z,27.41
2022-08-19T10:42:14.976Z,27.06
2022-08-19T10:44:45.845Z,26.86
2022-08-19T10:47:24.466Z,26.66
2022-08-19T10:50:14.071Z,26.74
2022-08-19T10:52:49.790Z,26.43
2022-08-19T10:55:40.525Z,26.11
2022-08-19T10:58:16.101Z,25.69
2022-08-19T11:00:49.547Z,25.27
2022-08-19T11:03:22.762Z,25.43
2022-08-19T11:06:03.196Z,25.33
2022-08-19T11:08:34.648Z,25.07
2022-08-19T11:11:08.286Z,24.90
2022-08-19T11:13:39.870Z,24.50
2022-08-19T11:16:11.967Z,24.44
2022-08-19T11:18:45.045Z,24.11
2022-08-19T11:21:18.111Z,23.93
2022-08-19T11:23:49.498Z,23.83
2022-08-19T11:26:20.836Z,23.78
2022-08-19T11:28:54.436Z,23.79
2022-08-19T11:31:29.035Z,23.57
2022-08-19T11:34:05.885Z,23.23
2022-08-19T11:36:37.104Z,23.21
2022-08-19T11:39:08.365Z,23.10
2022-08-19T11:41:39.156Z,22.82
2022-08-19T11:44:09.911Z,22.40
2022-08-19T11:46:40.764Z,22.34
2022-08-19T11:49:13.988Z,22.44
2022-08-19T11:51:45.496Z,22.16
2022-08-19T11:54:17.054Z,22.05
2022-08-19T11:56:50.490Z,21.74
2022-08-19T11:59:21.265Z,21.73
2022-08-19T12:01:52.092Z,21.89
2022-08-19T12:04:25.611Z,21.72
2022-08-19T12:06:56.484Z,21.74
2022-08-19T12:09:27.206Z,21.47
2022-08-19T12:12:02.938Z,21.07
2022-08-19T12:14:33.691Z,20.92
2022-08-19T12:17:06.075Z,21.15
2022-08-19T12:19:38.046Z,21.11
2022-08-19T12:22:09.965Z,20.97
2022-08-19T12:24:40.673Z,20.91
2022-08-19T12:27:12.662Z,20.66
2022-08-19T12:29:43.869Z,20.75
2022-08-19T12:32:14.601Z,20.61
2022-08-19T12:34:45.706Z,20.13
2022-08-19T12:37:17.915Z,19.99
2022-08-19T12:39:51.797Z,19.91
2022-08-19T12:42:23.147Z,19.72
2022-08-19T12:44:55.956Z,19.90
2022-08-19T12:47:27.595Z,19.95
2022-08-19T12:49:58.435Z,19.72
2022-08-19T12:52:29.548Z,19.67
2022-08-19T12:55:00.203Z,19.45
2022-08-19T12:57:34.258Z,19.58
2022-08-19T13:00:08.700Z,19.54
2022-08-19T13:02:39.469Z,19.43
2022-08-19T13:05:11.741Z,19.47
2022-08-19T13:07:42.599Z,19.48
2022-08-19T13:10:14.099Z,19.42
2022-08-19T13:12:44.863Z,19.47
2022-08-19T13:15:17.601Z,19.34
2022-08-19T13:17:50.022Z,19.24
2022-08-19T13:20:21.262Z,19.28
2022-08-19T13:22:52.637Z,19.13
2022-08-19T13:25:23.988Z,19.24
2022-08-19T13:27:56.224Z,18.76
2022-08-19T13:30:44.693Z,18.87
2022-08-19T13:33:16.678Z,18.71
2022-08-19T13:35:50.232Z,18.67
2022-08-19T13:38:22.270Z,18.67
2022-08-19T13:40:54.918Z,18.91
2022-08-19T13:43:33.511Z,18.98
2022-08-19T13:46:12.841Z,19.08
2022-08-19T13:48:44.045Z,18.95
2022-08-19T13:51:17.308Z,18.97
2022-08-19T13:53:53.885Z,18.82
2022-08-19T13:56:27.839Z,18.82
2022-08-19T13:59:05.991Z,18.66
2022-08-19T14:01:41.996Z,18.91
2022-08-19T14:04:12.815Z,18.77
2022-08-19T14:06:44.256Z,18.61
2022-08-19T14:09:15.084Z,18.79
2022-08-19T14:11:47.797Z,18.75
2022-08-19T14:14:18.593Z,18.71
2022-08-19T14:16:53.046Z,19.02
2022-08-19T14:19:26.016Z,18.99
2022-08-19T14:22:01.056Z,18.92
2022-08-19T14:24:31.771Z,18.97
2022-08-19T14:27:04.412Z,19.05
2022-08-19T14:29:35.903Z,18.80
2022-08-19T14:32:07.121Z,18.82
2022-08-19T14:34:42.376Z,18.79
2022-08-19T14:37:13.091Z,18.79
2022-08-19T14:39:45.786Z,18.87
2022-08-19T14:42:16.748Z,19.17
2022-08-19T14:44:47.523Z,19.14
2022-08-19T14:47:18.411Z,18.89
2022-08-19T14:49:51.193Z,19.15
2022-08-19T14:52:30.536Z,18.66
2022-08-19T14:55:01.472Z,18.89
2022-08-19T14:57:35.496Z,18.92
2022-08-19T15:00:13.116Z,18.54
2022-08-19T15:02:45.256Z,18.85
2022-08-19T15:05:16.022Z,18.31
2022-08-19T15:07:46.869Z,18.55
2022-08-19T15:10:20.861Z,18.59
2022-08-19T15:12:51.959Z,18.57
2022-08-19T15:15:26.300Z,18.58
2022-08-19T15:18:03.241Z,18.64
2022-08-19T15:20:42.071Z,18.77
2022-08-19T15:23:13.231Z,18.82
2022-08-19T15:25:47.624Z,18.69
2022-08-19T15:28:23.787Z,18.55
2022-08-19T15:30:54.716Z,18.91
2022-08-19T15:33:27.441Z,18.94
2022-08-19T15:36:00.316Z,19.13
2022-08-19T15:38:31.067Z,19.02
2022-08-19T15:41:21.833Z,19.42
2022-08-19T15:43:56.160Z,19.50
2022-08-19T15:46:28.456Z,19.42
2022-08-19T15:49:02.265Z,19.43
2022-08-19T15:51:35.663Z,19.56
2022-08-19T15:54:07.419Z,19.70
2022-08-19T15:56:57.480Z,19.74
2022-08-19T15:59:47.095Z,19.90
2022-08-19T16:02:38.301Z,20.11
2022-08-19T16:05:28.499Z,20.07
2022-08-19T16:07:59.371Z,20.34
2022-08-19T16:10:30.226Z,20.47
2022-08-19T16:13:00.876Z,20.36
2022-08-19T16:15:31.990Z,20.32
2022-08-19T16:18:03.861Z,20.43
2022-08-19T16:20:35.617Z,20.39
2022-08-19T16:23:08.765Z,20.66
2022-08-19T16:25:39.917Z,20.60
2022-08-19T16:28:10.978Z,20.81
2022-08-19T16:30:43.073Z,20.92
2022-08-19T16:33:23.169Z,20.95
2022-08-19T16:36:00.053Z,21.18
2022-08-19T16:38:31.458Z,21.39
2022-08-19T16:41:02.466Z,21.37
2022-08-19T16:43:33.392Z,21.76
2022-08-19T16:46:04.058Z,21.90
2022-08-19T16:48:34.769Z,22.03
2022-08-19T16:51:09.502Z,22.16
2022-08-19T16:53:41.351Z,22.29
2022-08-19T16:56:12.920Z,22.55
2022-08-19T16:58:44.513Z,22.68
2022-08-19T17:01:15.557Z,22.80
2022-08-19T17:03:47.703Z,22.99
2022-08-19T17:06:20.817Z,23.19
2022-08-19T17:08:53.066Z,23.45
2022-08-19T17:11:24.544Z,23.41
2022-08-19T17:13:55.733Z,23.73
2022-08-19T17:16:27.357Z,23.83
2022-08-19T17:18:59.176Z,23.99
2022-08-19T17:21:32.187Z,24.13
2022-08-19T17:24:03.633Z,24.26
2022-08-19T17:26:36.298Z,24.29
2022-08-19T17:29:09.565Z,24.52
2022-08-19T17:31:40.306Z,24.47
2022-08-19T17:34:11.032Z,24.50
2022-08-19T17:36:42.120Z,24.72
2022-08-19T17:39:12.845Z,25.04
2022-08-19T17:41:44.260Z,25.27
2022-08-19T17:44:15.116Z,25.18
2022-08-19T17:46:46.823Z,25.45
2022-08-19T17:49:20.027Z,25.65
2022-08-19T17:51:52.566Z,25.75
2022-08-19T17:54:23.397Z,25.75
2022-08-19T17:57:03.401Z,25.65
2022-08-19T17:59:34.184Z,26.01
2022-08-19T18:02:06.457Z,26.07
2022-08-19T18:04:37.236Z,26.24
2022-08-19T18:07:10.285Z,26.08
2022-08-19T18:09:49.566Z,26.22
2022-08-19T18:12:24.645Z,26.58
2022-08-19T18:14:55.470Z,26.49
2022-08-19T18:17:28.857Z,26.84
2022-08-19T18:19:59.751Z,26.94
2022-08-19T18:22:31.501Z,26.93
2022-08-19T18:25:03.082Z,27.04
2022-08-19T18:27:33.925Z,27.33
2022-08-19T18:30:05.232Z,27.37
2022-08-19T18:32:38.270Z,27.36
2022-08-19T18:35:11.622Z,27.44
2022-08-19T18:37:45.367Z,27.51
2022-08-19T18:40:35.178Z,27.66
2022-08-19T18:43:20.101Z,27.81
2022-08-19T18:46:08.242Z,27.65
2022-08-19T18:48:56.731Z,27.99
2022-08-19T18:51:30.003Z,27.69
2022-08-19T18:54:01.547Z,28.04
2022-08-19T18:56:33.528Z,27.90
2022-08-19T18:59:04.640Z,28.22
2022-08-19T19:01:36.898Z,28.14
2022-08-19T19:04:10.700Z,28.29
2022-08-19T19:06:45.392Z,28.49
2022-08-19T19:09:17.463Z,28.32
2022-08-19T19:11:50.213Z,28.53
2022-08-19T19:14:47.589Z,28.73
2022-08-19T19:17:15.537Z,28.63
2022-08-19T19:19:46.422Z,28.70
2022-08-19T19:22:19.004Z,28.71
2022-08-19T19:24:50.862Z,28.94
2022-08-19T19:27:22.071Z,29.18
2022-08-19T19:29:53.443Z,29.21
2022-08-19T19:32:27.077Z,29.35
2022-08-19T19:34:57.955Z,29.48
2022-08-19T19:37:28.718Z,29.42
2022-08-19T19:39:59.590Z,29.50
2022-08-19T19:42:30.394Z,29.48
2022-08-19T19:45:01.625Z,29.54
2022-08-19T19:47:33.605Z,29.71
2022-08-19T19:50:14.212Z,29.81
2022-08-19T19:52:47.060Z,29.81
2022-08-19T19:55:19.116Z,29.84
2022-08-19T19:57:49.982Z,29.91
2022-08-19T20:00:20.979Z,30.15
2022-08-19T20:02:52.853Z,30.09
2022-08-19T20:05:24.025Z,30.15
2022-08-19T20:08:12.875Z,30.17
2022-08-19T20:10:44.280Z,30.25
2022-08-19T20:13:15.752Z,30.23
2022-08-19T20:15:46.766Z,30.46
2022-08-19T20:18:17.453Z,30.56
2022-08-19T20:20:50.307Z,30.58
2022-08-19T20:23:21.724Z,30.68
2022-08-19T20:25:52.590Z,30.91
2022-08-19T20:28:25.072Z,30.84
2022-08-19T20:30:56.715Z,31.09
2022-08-19T20:33:33.772Z,31.21
2022-08-19T20:36:05.473Z,31.32
2022-08-19T20:38:39.399Z,31.35
2022-08-19T20:41:12.888Z,31.47
2022-08-19T20:43:43.926Z,31.68
2022-08-19T20:46:15.199Z,31.63
2022-08-19T20:48:47.488Z,31.65
2022-08-19T20:51:18.572Z,31.63
2022-08-19T20:53:49.246Z,31.59
2022-08-19T20:56:23.087Z,31.69
2022-08-19T20:58:59.305Z,31.72
2022-08-19T21:01:33.390Z,31.97
2022-08-19T21:04:04.435Z,32.00
2022-08-19T21:06:35.215Z,32.16
2022-08-19T21:09:07.355Z,32.03
2022-08-19T21:11:38.141Z,32.21
2022-08-19T21:14:08.963Z,32.26
2022-08-19T21:16:42.143Z,32.49
2022-08-19T21:19:13.090Z,32.60
2022-08-19T21:21:44.840Z,32.61
2022-08-19T21:24:15.639Z,32.59
2022-08-19T21:26:51.103Z,32.60
2022-08-19T21:29:22.232Z,32.73
2022-08-19T21:31:58.167Z,32.75
2022-08-19T21:34:28.927Z,32.91
2022-08-19T21:36:59.791Z,32.82
2022-08-19T21:39:31.117Z,33.00
2022-08-19T21:42:04.281Z,33.02
2022-08-19T21:44:35.120Z,33.02
2022-08-19T21:47:20.395Z,33.14
2022-08-19T21:49:51.079Z,33.21
2022-08-19T21:52:26.090Z,33.25
2022-08-19T21:54:57.376Z,33.29
2022-08-19T21:57:31.124Z,33.40
2022-08-19T22:00:01.831Z,33.46
2022-08-19T22:02:32.619Z,33.56
2022-08-19T22:05:05.103Z,33.69
2022-08-19T22:07:38.683Z,33.65
2022-08-19T22:10:12.237Z,33.71
2022-08-19T22:12:48.793Z,33.84
2022-08-19T22:15:22.545Z,33.85
2022-08-19T22:17:57.613Z,34.00
2022-08-19T22:20:29.639Z,34.11
2022-08-19T22:23:04.379Z,34.12
2022-08-19T22:25:35.936Z,34.34
2022-08-19T22:28:10.899Z,34.50
2022-08-19T22:30:45.400Z,34.49
2022-08-19T22:33:20.143Z,34.32
2022-08-19T22:35:51.015Z,34.53
2022-08-19T22:38:24.205Z,34.48
2022-08-19T22:40:56.642Z,34.77
2022-08-19T22:43:30.258Z,34.71
2022-08-19T22:46:01.195Z,34.64
2022-08-19T22:48:32.748Z,34.97
2022-08-19T22:51:22.301Z,35.04
2022-08-19T22:53:55.226Z,35.05
2022-08-19T22:56:27.409Z,34.94
2022-08-19T22:59:01.086Z,35.12
2022-08-19T23:01:41.517Z,35.24
2022-08-19T23:04:14.838Z,35.44
2022-08-19T23:06:46.763Z,35.27
2022-08-19T23:09:18.520Z,35.70
2022-08-19T23:11:55.320Z,35.67
2022-08-19T23:14:26.084Z,35.75
2022-08-19T23:16:59.696Z,35.39
2022-08-19T23:19:32.667Z,35.71
2022-08-19T23:22:05.303Z,35.73
2022-08-19T23:24:36.294Z,35.80
2022-08-19T23:27:25.260Z,35.85
2022-08-19T23:30:13.705Z,35.92
2022-08-19T23:32:46.083Z,35.88
2022-08-19T23:35:16.994Z,36.14
2022-08-19T23:37:48.162Z,36.15
2022-08-19T23:40:22.045Z,36.49
2022-08-19T23:42:52.901Z,36.69
2022-08-19T23:45:24.764Z,36.47
2022-08-19T23:47:58.915Z,37.02
2022-08-19T23:50:29.791Z,36.91
2022-08-19T23:53:02.121Z,37.07
2022-08-19T23:55:42.891Z,37.23
2022-08-19T23:58:15.099Z,37.37
